Time;durP1;ratioP1;P1;durP2;ratioP2;P2;SDS_P1;SDS_P2;PMS_P1;PMS_P2;Temp;Humidity;BMP_temperature;BMP_pressure;BME280_temperature;BME280_humidity;BME280_pressure;Samples;Min_cycle;Max_cycle;Signal;HPM_P1;HPM_P2
2022/08/08 00:02:14;;;;;;;1.95;1.70;;;;;;;;;;6317061;28;20049;-80
2022/08/08 00:05:38;;;;;;;1.98;1.25;;;;;;;;;;6309764;28;20059;-79
2022/08/08 00:09:12;;;;;;;2.22;1.40;;;;;;;;;;6319011;28;20466;-79
2022/08/08 00:12:23;;;;;;;1.70;1.52;;;;;;;;;;6295263;28;20538;-80
2022/08/08 00:15:30;;;;;;;1.88;1.40;;;;;;;;;;6313792;28;20172;-79
2022/08/08 00:19:19;;;;;;;2.47;1.45;;;;;;;;;;6321185;28;20517;-79
2022/08/08 00:22:31;;;;;;;1.40;1.30;;;;;;;;;;6313386;28;20173;-79
2022/08/08 00:25:38;;;;;;;1.58;1.30;;;;;;;;;;6309658;28;20369;-80
2022/08/08 00:28:58;;;;;;;2.08;1.77;;;;;;;;;;6312213;28;20040;-79
2022/08/08 00:32:12;;;;;;;1.42;1.33;;;;;;;;;;6321202;28;20051;-79
2022/08/08 00:35:56;;;;;;;2.05;1.30;;;;;;;;;;6297831;28;20044;-80
2022/08/08 00:39:09;;;;;;;1.60;1.50;;;;;;;;;;6310484;28;20151;-79
2022/08/08 00:43:14;;;;;;;1.50;1.40;;;;;;;;;;6299835;28;20043;-79
2022/08/08 00:46:29;;;;;;;1.60;1.50;;;;;;;;;;6315567;28;20449;-79
2022/08/08 00:50:00;;;;;;;2.63;1.60;;;;;;;;;;6297113;28;20044;-79
2022/08/08 00:53:38;;;;;;;1.58;1.48;;;;;;;;;;6287162;28;20393;-79
2022/08/08 00:57:17;;;;;;;1.55;1.45;;;;;;;;;;6293791;28;20048;-79
2022/08/08 01:00:53;;;;;;;1.60;1.50;;;;;;;;;;6308473;28;20048;-79
2022/08/08 01:04:29;;;;;;;4.10;1.48;;;;;;;;;;6298990;28;20047;-79
2022/08/08 01:07:52;;;;;;;1.83;1.70;;;;;;;;;;6231869;28;20079;-79
2022/08/08 01:11:25;;;;;;;1.52;1.42;;;;;;;;;;6297300;28;20087;-79
2022/08/08 01:15:08;;;;;;;2.10;1.33;;;;;;;;;;6296521;28;20048;-79
2022/08/08 01:18:25;;;;;;;1.70;1.60;;;;;;;;;;6286875;28;20415;-79
2022/08/08 01:22:02;;;;;;;1.50;1.40;;;;;;;;;;6319313;28;20051;-79
2022/08/08 01:25:39;;;;;;;1.92;1.55;;;;;;;;;;6309687;28;20090;-79
2022/08/08 01:29:14;;;;;;;1.55;1.38;;;;;;;;;;6297361;28;20052;-79
2022/08/08 01:32:55;;;;;;;1.70;1.60;;;;;;;;;;6296213;28;20640;-79
2022/08/08 01:36:05;;;;;;;1.95;1.75;;;;;;;;;;6294682;28;20049;-80
2022/08/08 01:39:20;;;;;;;1.73;1.58;;;;;;;;;;6291289;28;20050;-79
2022/08/08 01:42:35;;;;;;;3.38;1.50;;;;;;;;;;6321096;28;20177;-79
2022/08/08 01:46:04;;;;;;;1.55;1.45;;;;;;;;;;6294284;28;20058;-79
2022/08/08 01:49:18;;;;;;;1.60;1.50;;;;;;;;;;6295186;28;20151;-79
2022/08/08 01:53:16;;;;;;;1.88;1.60;;;;;;;;;;6301215;28;20084;-80
2022/08/08 01:56:48;;;;;;;1.83;1.73;;;;;;;;;;6265523;28;20104;-79
2022/08/08 02:00:05;;;;;;;3.92;1.75;;;;;;;;;;6309334;28;20116;-80
2022/08/08 02:03:45;;;;;;;2.13;1.73;;;;;;;;;;6313083;28;20108;-79
2022/08/08 02:07:26;;;;;;;2.38;1.60;;;;;;;;;;6312618;28;20055;-78
2022/08/08 02:10:53;;;;;;;1.90;1.80;;;;;;;;;;6293309;28;20054;-79
2022/08/08 02:14:04;;;;;;;2.13;1.63;;;;;;;;;;6295632;28;20047;-79
2022/08/08 02:17:39;;;;;;;1.70;1.60;;;;;;;;;;6293169;28;20114;-79
2022/08/08 02:24:27;;;;;;;2.17;1.40;;;;;;;;;;6304100;28;20040;-79
2022/08/08 02:27:40;;;;;;;2.05;1.60;;;;;;;;;;6304607;28;20058;-79
2022/08/08 02:31:17;;;;;;;1.70;1.60;;;;;;;;;;6303016;28;20048;-79
2022/08/08 02:35:01;;;;;;;3.17;1.75;;;;;;;;;;6302552;28;20068;-79
2022/08/08 02:38:34;;;;;;;2.50;1.70;;;;;;;;;;6290521;28;20060;-79
2022/08/08 02:41:59;;;;;;;1.85;1.70;;;;;;;;;;6300665;28;20039;-79
2022/08/08 02:45:30;;;;;;;2.55;1.80;;;;;;;;;;6323206;28;20039;-79
2022/08/08 02:49:29;;;;;;;2.33;1.90;;;;;;;;;;6302538;28;20107;-79
2022/08/08 02:53:22;;;;;;;2.38;1.80;;;;;;;;;;6295889;28;20519;-79
2022/08/08 02:56:37;;;;;;;;;;;;;;;;;;6302530;28;20040;-79
2022/08/08 03:00:36;;;;;;;1.70;1.60;;;;;;;;;;6295119;28;19920;-79
2022/08/08 03:04:28;;;;;;;1.65;1.50;;;;;;;;;;6170291;28;20077;-79
2022/08/08 03:08:26;;;;;;;2.10;1.80;;;;;;;;;;6196866;28;20057;-79
2022/08/08 03:11:31;;;;;;;1.73;1.63;;;;;;;;;;6287260;28;20039;-79
2022/08/08 03:15:26;;;;;;;1.77;1.60;;;;;;;;;;6317680;28;20146;-79
2022/08/08 03:18:51;;;;;;;1.92;1.75;;;;;;;;;;6266673;28;20090;-79
2022/08/08 03:21:54;;;;;;;1.70;1.60;;;;;;;;;;6298586;28;20048;-79
2022/08/08 03:25:04;;;;;;;2.03;1.70;;;;;;;;;;6285411;28;20089;-83
2022/08/08 03:28:31;;;;;;;2.20;2.00;;;;;;;;;;6299915;28;20036;-82
2022/08/08 03:35:09;;;;;;;2.10;1.90;;;;;;;;;;6306419;28;20046;-83
2022/08/08 03:38:11;;;;;;;2.17;2.00;;;;;;;;;;6277546;28;20036;-82
2022/08/08 03:41:34;;;;;;;1.92;1.83;;;;;;;;;;6299543;28;20537;-83
2022/08/08 03:44:59;;;;;;;2.08;1.90;;;;;;;;;;6271758;28;20045;-83
2022/08/08 03:48:08;;;;;;;2.83;2.20;;;;;;;;;;6291205;28;20044;-83
2022/08/08 03:51:24;;;;;;;2.78;1.80;;;;;;;;;;6300046;28;20045;-82
2022/08/08 03:54:46;;;;;;;2.05;1.85;;;;;;;;;;6279216;28;20115;-83
2022/08/08 03:58:09;;;;;;;2.75;2.53;;;;;;;;;;6298218;28;20040;-82
2022/08/08 04:01:41;;;;;;;2.50;2.30;;;;;;;;;;6280126;28;20048;-83
2022/08/08 04:05:04;;;;;;;4.78;2.13;;;;;;;;;;6287912;28;20097;-83
2022/08/08 04:08:21;;;;;;;3.25;2.47;;;;;;;;;;6285654;28;20075;-84
2022/08/08 04:11:40;;;;;;;2.90;2.10;;;;;;;;;;6285485;28;20052;-83
2022/08/08 04:15:12;;;;;;;2.90;2.15;;;;;;;;;;6237947;28;1078550;-82
2022/08/08 04:18:17;;;;;;;2.45;2.25;;;;;;;;;;6321199;28;20043;-83
2022/08/08 04:21:21;;;;;;;2.60;2.40;;;;;;;;;;6301313;28;20044;-82
2022/08/08 04:24:28;;;;;;;3.88;2.10;;;;;;;;;;6291801;28;20066;-82
2022/08/08 04:27:36;;;;;;;2.33;2.13;;;;;;;;;;6299671;28;20162;-83
2022/08/08 04:30:58;;;;;;;2.45;2.10;;;;;;;;;;6296498;28;20123;-82
2022/08/08 04:34:05;;;;;;;2.83;2.20;;;;;;;;;;6296733;28;20464;-83
2022/08/08 04:37:10;;;;;;;3.05;2.35;;;;;;;;;;6300145;28;20056;-82
2022/08/08 04:40:13;;;;;;;2.50;2.30;;;;;;;;;;6294922;28;20067;-82
2022/08/08 04:43:22;;;;;;;2.58;2.25;;;;;;;;;;6317644;28;20047;-82
2022/08/08 04:46:46;;;;;;;3.10;2.15;;;;;;;;;;6299696;28;20037;-82
2022/08/08 04:49:54;;;;;;;4.15;2.20;;;;;;;;;;6284910;28;20047;-82
2022/08/08 04:53:06;;;;;;;4.15;2.13;;;;;;;;;;6300628;28;20442;-82
2022/08/08 04:56:28;;;;;;;2.63;2.30;;;;;;;;;;6305847;28;20048;-82
2022/08/08 04:59:30;;;;;;;3.17;2.33;;;;;;;;;;6289646;28;20240;-82
2022/08/08 05:02:43;;;;;;;2.67;2.30;;;;;;;;;;6278611;28;20051;-83
2022/08/08 05:05:45;;;;;;;4.35;2.50;;;;;;;;;;6275508;28;20073;-82
2022/08/08 05:08:56;;;;;;;5.60;2.75;;;;;;;;;;6291501;28;20529;-83
2022/08/08 05:12:08;;;;;;;2.25;1.95;;;;;;;;;;6291422;28;20040;-82
2022/08/08 05:15:21;;;;;;;2.95;2.47;;;;;;;;;;6277244;28;20060;-82
2022/08/08 05:18:24;;;;;;;5.68;2.35;;;;;;;;;;6281224;28;20051;-82
2022/08/08 05:21:28;;;;;;;3.28;2.47;;;;;;;;;;6278175;28;20075;-82
2022/08/08 05:24:44;;;;;;;2.72;2.47;;;;;;;;;;6298541;28;20032;-82
2022/08/08 05:27:52;;;;;;;3.47;3.00;;;;;;;;;;6313965;28;20052;-83
2022/08/08 05:30:56;;;;;;;2.83;2.63;;;;;;;;;;6294100;28;20043;-82
2022/08/08 05:34:36;;;;;;;4.30;2.58;;;;;;;;;;6294453;28;20115;-83
2022/08/08 05:37:41;;;;;;;2.55;2.35;;;;;;;;;;6287398;28;20108;-82
2022/08/08 05:41:06;;;;;;;2.55;2.35;;;;;;;;;;6282288;28;20055;-82
2022/08/08 05:44:12;;;;;;;2.83;2.28;;;;;;;;;;6299804;28;20065;-81
2022/08/08 05:47:19;;;;;;;3.65;2.40;;;;;;;;;;6284408;28;20098;-82
2022/08/08 05:50:24;;;;;;;4.15;2.40;;;;;;;;;;6302197;28;20059;-82
2022/08/08 05:53:26;;;;;;;;;;;;;;;;;;6294213;28;20118;-83
2022/08/08 05:56:51;;;;;;;3.67;2.67;;;;;;;;;;6312079;28;20006;-83
2022/08/08 06:00:00;;;;;;;4.03;2.40;;;;;;;;;;6295138;28;20139;-83
2022/08/08 06:03:29;;;;;;;3.17;2.42;;;;;;;;;;6256689;28;20041;-82
2022/08/08 06:06:38;;;;;;;4.78;2.42;;;;;;;;;;6312056;28;20051;-83
2022/08/08 06:09:41;;;;;;;4.00;2.20;;;;;;;;;;6302810;28;20050;-83
2022/08/08 06:13:07;;;;;;;5.38;2.72;;;;;;;;;;6298926;28;20040;-82
2022/08/08 06:16:12;;;;;;;9.10;2.50;;;;;;;;;;6282980;28;20048;-84
2022/08/08 06:19:41;;;;;;;7.20;2.22;;;;;;;;;;6295679;28;20522;-83
2022/08/08 06:22:43;;;;;;;8.90;2.60;;;;;;;;;;6273906;28;20048;-84
2022/08/08 06:26:05;;;;;;;5.32;2.30;;;;;;;;;;6292057;28;20040;-83
2022/08/08 06:29:34;;;;;;;8.63;2.35;;;;;;;;;;6286566;28;20047;-82
2022/08/08 06:32:58;;;;;;;7.95;2.40;;;;;;;;;;6312367;28;20044;-82
2022/08/08 06:36:05;;;;;;;9.45;2.38;;;;;;;;;;6305787;28;20043;-81
2022/08/08 06:39:13;;;;;;;11.80;2.47;;;;;;;;;;6296667;28;20052;-81
2022/08/08 06:42:19;;;;;;;7.70;2.83;;;;;;;;;;6305165;28;20537;-83
2022/08/08 06:45:23;;;;;;;6.05;2.17;;;;;;;;;;6285329;28;20487;-84
2022/08/08 06:48:25;;;;;;;6.70;2.95;;;;;;;;;;6301036;28;20131;-82
2022/08/08 06:51:29;;;;;;;5.07;2.38;;;;;;;;;;6300625;28;20043;-82
2022/08/08 06:54:51;;;;;;;3.63;2.42;;;;;;;;;;6304378;28;20071;-82
2022/08/08 06:57:53;;;;;;;;;;;;;;;;;;6297976;28;20041;-82
2022/08/08 07:01:00;;;;;;;5.93;2.08;;;;;;;;;;6303475;28;20086;-82
2022/08/08 07:04:10;;;;;;;8.40;2.47;;;;;;;;;;6299364;28;20067;-82
2022/08/08 07:07:50;;;;;;;6.88;2.63;;;;;;;;;;6294729;28;20128;-83
2022/08/08 07:10:58;;;;;;;6.93;2.30;;;;;;;;;;6296510;28;20052;-83
2022/08/08 07:14:04;;;;;;;6.97;2.17;;;;;;;;;;6324743;28;20048;-83
2022/08/08 07:17:16;;;;;;;6.07;2.22;;;;;;;;;;6302465;28;20062;-82
2022/08/08 07:20:42;;;;;;;6.28;2.28;;;;;;;;;;6300248;28;20059;-83
2022/08/08 07:23:59;;;;;;;4.75;2.30;;;;;;;;;;6285437;28;20174;-83
2022/08/08 07:27:14;;;;;;;6.20;2.30;;;;;;;;;;6298920;28;20052;-83
2022/08/08 07:30:20;;;;;;;4.00;1.80;;;;;;;;;;6308883;28;20044;-84
2022/08/08 07:33:31;;;;;;;3.42;1.63;;;;;;;;;;6301108;28;20388;-84
2022/08/08 07:36:41;;;;;;;2.28;1.52;;;;;;;;;;6299535;28;20047;-82
2022/08/08 07:39:57;;;;;;;3.03;1.60;;;;;;;;;;6315143;28;20036;-82
2022/08/08 07:43:05;;;;;;;2.67;1.40;;;;;;;;;;6285884;28;20101;-81
2022/08/08 07:46:14;;;;;;;3.70;1.20;;;;;;;;;;6296811;28;20129;-82
2022/08/08 07:49:38;;;;;;;3.35;2.05;;;;;;;;;;6289618;28;20063;-79
2022/08/08 07:52:47;;;;;;;3.03;1.40;;;;;;;;;;6297017;28;20055;-80
2022/08/08 07:55:56;;;;;;;3.22;1.30;;;;;;;;;;6300462;28;20044;-81
2022/08/08 07:59:01;;;;;;;2.40;1.20;;;;;;;;;;6297044;28;20067;-84
2022/08/08 08:02:06;;;;;;;2.13;1.20;;;;;;;;;;6296015;28;20040;-83
2022/08/08 08:05:29;;;;;;;2.00;1.30;;;;;;;;;;6317333;28;20051;-83
2022/08/08 08:08:42;;;;;;;3.38;1.13;;;;;;;;;;6299927;28;20402;-83
2022/08/08 08:11:58;;;;;;;5.28;1.40;;;;;;;;;;6319010;28;20090;-82
2022/08/08 08:15:09;;;;;;;2.47;1.10;;;;;;;;;;6295940;28;20051;-82
2022/08/08 08:18:17;;;;;;;2.15;1.30;;;;;;;;;;6286518;28;20048;-83
2022/08/08 08:21:37;;;;;;;3.42;1.10;;;;;;;;;;6292470;28;20043;-83
2022/08/08 08:25:09;;;;;;;1.85;1.10;;;;;;;;;;6297462;28;20370;-83
2022/08/08 08:28:14;;;;;;;1.38;0.95;;;;;;;;;;6303477;28;20063;-83
2022/08/08 08:31:24;;;;;;;3.40;1.02;;;;;;;;;;6305030;28;20047;-83
2022/08/08 08:34:26;;;;;;;1.17;1.00;;;;;;;;;;6302556;28;20465;-83
2022/08/08 08:37:33;;;;;;;1.73;0.80;;;;;;;;;;6315603;28;20448;-83
2022/08/08 08:40:57;;;;;;;5.07;1.10;;;;;;;;;;6288351;28;20558;-83
2022/08/08 08:44:01;;;;;;;1.67;0.90;;;;;;;;;;6296367;28;20130;-84
2022/08/08 08:47:18;;;;;;;4.30;0.90;;;;;;;;;;6285590;28;20036;-85
2022/08/08 08:50:24;;;;;;;1.77;0.85;;;;;;;;;;6286925;22;20044;-75
2022/08/08 08:53:51;;;;;;;1.73;0.80;;;;;;;;;;6223276;28;20042;-80
2022/08/08 08:57:07;;;;;;;3.70;0.70;;;;;;;;;;6225575;28;20038;-78
2022/08/08 09:00:18;;;;;;;2.28;0.90;;;;;;;;;;6209420;28;20053;-79
2022/08/08 09:03:23;;;;;;;0.70;0.70;;;;;;;;;;6213787;28;20526;-80
2022/08/08 09:06:48;;;;;;;1.48;0.80;;;;;;;;;;6210533;28;20049;-80
2022/08/08 09:09:53;;;;;;;0.70;0.70;;;;;;;;;;6228552;28;20466;-79
2022/08/08 09:13:07;;;;;;;1.53;0.70;;;;;;;;;;6218987;28;20508;-80
2022/08/08 09:16:09;;;;;;;2.38;0.70;;;;;;;;;;6229114;28;20303;-79
2022/08/08 09:19:15;;;;;;;1.20;0.70;;;;;;;;;;6214704;28;20042;-78
2022/08/08 09:22:38;;;;;;;0.70;0.70;;;;;;;;;;6211803;28;20041;-78
2022/08/08 09:25:57;;;;;;;3.83;0.90;;;;;;;;;;6228600;28;20042;-80
2022/08/08 09:29:07;;;;;;;1.45;0.80;;;;;;;;;;6204789;28;20242;-79
2022/08/08 09:32:15;;;;;;;0.90;0.70;;;;;;;;;;6229179;28;20081;-80
2022/08/08 09:35:27;;;;;;;0.77;0.70;;;;;;;;;;6229402;28;20052;-79
2022/08/08 09:38:58;;;;;;;0.70;0.70;;;;;;;;;;6226965;28;20474;-79
2022/08/08 09:42:03;;;;;;;2.00;0.70;;;;;;;;;;6224387;28;20494;-78
2022/08/08 09:45:32;;;;;;;1.30;1.20;;;;;;;;;;6211441;28;20046;-79
2022/08/08 09:48:55;;;;;;;1.67;0.50;;;;;;;;;;6210448;28;20500;-81
2022/08/08 09:51:57;;;;;;;1.40;0.68;;;;;;;;;;6212564;28;20389;-80
2022/08/08 09:55:09;;;;;;;1.10;0.70;;;;;;;;;;6223422;28;20093;-79
2022/08/08 09:58:20;;;;;;;0.90;0.60;;;;;;;;;;6210292;28;20124;-80
2022/08/08 10:01:45;;;;;;;0.70;0.70;;;;;;;;;;6218408;28;20076;-79
2022/08/08 10:05:08;;;;;;;2.53;0.70;;;;;;;;;;6225140;28;20052;-80
2022/08/08 10:08:16;;;;;;;2.55;0.95;;;;;;;;;;6221408;28;20049;-81
2022/08/08 10:11:22;;;;;;;2.35;0.80;;;;;;;;;;6212905;28;20042;-80
2022/08/08 10:14:46;;;;;;;0.55;0.55;;;;;;;;;;6208580;28;20077;-79
2022/08/08 10:17:52;;;;;;;0.60;0.60;;;;;;;;;;6213078;28;20107;-79
2022/08/08 10:21:16;;;;;;;1.08;0.70;;;;;;;;;;6211088;28;20046;-79
2022/08/08 10:24:30;;;;;;;1.98;0.70;;;;;;;;;;6210832;28;20041;-78
2022/08/08 10:27:41;;;;;;;0.70;0.70;;;;;;;;;;6225111;28;20061;-79
2022/08/08 10:30:54;;;;;;;3.53;0.77;;;;;;;;;;6229688;28;20085;-78
2022/08/08 10:34:03;;;;;;;2.45;0.80;;;;;;;;;;6232920;28;20054;-79
2022/08/08 10:37:26;;;;;;;0.95;0.77;;;;;;;;;;6227037;28;20065;-79
2022/08/08 10:40:36;;;;;;;1.52;0.70;;;;;;;;;;6212617;28;20128;-79
2022/08/08 10:43:40;;;;;;;0.95;0.77;;;;;;;;;;6231226;28;20041;-79
2022/08/08 10:46:43;;;;;;;1.38;0.80;;;;;;;;;;6219352;28;20419;-78
2022/08/08 10:49:54;;;;;;;1.33;0.80;;;;;;;;;;6232598;28;20050;-79
2022/08/08 10:53:05;;;;;;;1.27;0.88;;;;;;;;;;6233453;28;20069;-78
2022/08/08 10:56:12;;;;;;;0.70;0.70;;;;;;;;;;6216668;28;20038;-78
2022/08/08 10:59:32;;;;;;;1.63;0.63;;;;;;;;;;6216502;28;20053;-79
2022/08/08 11:02:41;;;;;;;1.10;0.80;;;;;;;;;;6218533;28;20504;-79
2022/08/08 11:05:49;;;;;;;4.28;0.70;;;;;;;;;;6220252;28;20057;-79
2022/08/08 11:08:59;;;;;;;1.13;0.70;;;;;;;;;;6232930;28;20474;-77
2022/08/08 11:12:02;;;;;;;1.00;0.90;;;;;;;;;;6219908;28;20085;-79
2022/08/08 11:15:17;;;;;;;1.02;0.90;;;;;;;;;;6232598;28;20049;-78
2022/08/08 11:18:19;;;;;;;1.65;0.75;;;;;;;;;;6218636;28;20478;-78
2022/08/08 11:21:22;;;;;;;1.15;0.82;;;;;;;;;;6218389;28;20100;-77
2022/08/08 11:24:36;;;;;;;1.10;0.70;;;;;;;;;;6214993;28;20364;-78
2022/08/08 11:27:41;;;;;;;0.60;0.50;;;;;;;;;;6217099;28;20131;-78
2022/08/08 11:30:47;;;;;;;1.08;0.80;;;;;;;;;;6230720;28;20095;-78
2022/08/08 11:33:56;;;;;;;0.75;0.75;;;;;;;;;;6218002;28;20042;-78
2022/08/08 11:37:05;;;;;;;0.70;0.70;;;;;;;;;;6216960;28;20447;-79
2022/08/08 11:40:16;;;;;;;1.70;0.90;;;;;;;;;;6228990;28;20487;-79
2022/08/08 11:43:27;;;;;;;0.85;0.70;;;;;;;;;;6231111;28;20061;-79
2022/08/08 11:46:42;;;;;;;0.98;0.60;;;;;;;;;;6217241;28;20524;-81
2022/08/08 11:49:46;;;;;;;2.00;0.90;;;;;;;;;;6219072;28;21107;-80
2022/08/08 11:52:51;;;;;;;1.85;0.70;;;;;;;;;;6229881;28;20046;-80
2022/08/08 11:55:53;;;;;;;1.75;0.68;;;;;;;;;;6217172;28;20052;-80
2022/08/08 11:59:04;;;;;;;0.90;0.68;;;;;;;;;;6216399;28;20505;-79
2022/08/08 12:02:06;;;;;;;0.63;0.60;;;;;;;;;;6216887;28;20046;-80
2022/08/08 12:05:33;;;;;;;0.60;0.60;;;;;;;;;;6218326;28;20053;-80
2022/08/08 12:08:36;;;;;;;0.68;0.68;;;;;;;;;;6226218;28;20061;-80
2022/08/08 12:11:41;;;;;;;2.40;0.77;;;;;;;;;;6228734;28;20057;-80
2022/08/08 12:14:42;;;;;;;1.08;0.68;;;;;;;;;;6230736;28;20516;-79
2022/08/08 12:17:55;;;;;;;0.82;0.82;;;;;;;;;;6229382;28;20042;-80
2022/08/08 12:20:57;;;;;;;1.42;0.60;;;;;;;;;;6230175;28;20077;-80
2022/08/08 12:24:03;;;;;;;1.65;0.70;;;;;;;;;;6215711;28;20046;-79
2022/08/08 12:27:15;;;;;;;0.60;0.60;;;;;;;;;;6215805;28;20049;-80
2022/08/08 12:30:30;;;;;;;1.20;0.70;;;;;;;;;;6213702;28;20485;-79
2022/08/08 12:33:32;;;;;;;2.17;0.80;;;;;;;;;;6229658;28;20053;-80
2022/08/08 12:37:04;;;;;;;0.88;0.60;;;;;;;;;;6228267;28;20132;-80
2022/08/08 12:40:17;;;;;;;1.70;0.60;;;;;;;;;;6213771;28;20049;-79
2022/08/08 12:43:30;;;;;;;0.77;0.77;;;;;;;;;;6214501;28;20080;-78
2022/08/08 12:46:56;;;;;;;0.73;0.70;;;;;;;;;;6215150;28;20049;-80
2022/08/08 12:50:03;;;;;;;0.70;0.60;;;;;;;;;;6216520;28;20058;-79
2022/08/08 12:53:34;;;;;;;1.80;0.68;;;;;;;;;;6212654;28;20076;-80
2022/08/08 12:56:44;;;;;;;1.23;0.75;;;;;;;;;;6210707;28;20058;-80
2022/08/08 12:59:52;;;;;;;0.70;0.68;;;;;;;;;;6229751;28;20041;-80
2022/08/08 13:03:28;;;;;;;1.25;0.80;;;;;;;;;;6213503;28;20123;-81
2022/08/08 13:06:34;;;;;;;1.38;0.70;;;;;;;;;;6204995;28;20419;-81
2022/08/08 13:09:40;;;;;;;1.40;0.60;;;;;;;;;;6208598;28;20270;-77
2022/08/08 13:13:02;;;;;;;1.60;0.80;;;;;;;;;;6221612;28;20057;-76
2022/08/08 13:16:27;;;;;;;1.17;0.75;;;;;;;;;;6209238;28;20045;-77
2022/08/08 13:19:31;;;;;;;0.75;0.60;;;;;;;;;;6214981;28;20452;-76
2022/08/08 13:22:52;;;;;;;0.60;0.60;;;;;;;;;;6209299;28;20420;-79
2022/08/08 13:26:14;;;;;;;2.20;0.98;;;;;;;;;;6211545;28;20046;-80
2022/08/08 13:29:18;;;;;;;0.80;0.70;;;;;;;;;;6211455;28;20049;-79
2022/08/08 13:32:26;;;;;;;1.35;0.60;;;;;;;;;;6210782;28;20046;-80
2022/08/08 13:35:29;;;;;;;1.13;0.68;;;;;;;;;;6206796;28;20054;-79
2022/08/08 13:38:44;;;;;;;1.42;0.95;;;;;;;;;;6205646;28;20802;-79
2022/08/08 13:41:48;;;;;;;0.68;0.60;;;;;;;;;;6223127;28;20581;-79
2022/08/08 13:45:00;;;;;;;2.00;0.70;;;;;;;;;;6205810;28;20281;-78
2022/08/08 13:48:12;;;;;;;2.35;0.90;;;;;;;;;;6208017;28;20076;-78
2022/08/08 13:51:16;;;;;;;0.75;0.60;;;;;;;;;;6208320;28;20038;-79
2022/08/08 13:54:40;;;;;;;2.28;0.75;;;;;;;;;;6204699;28;20053;-77
2022/08/08 13:57:50;;;;;;;;;;;;;;;;;;6205076;28;20738;-79
2022/08/08 14:01:16;;;;;;;0.60;0.60;;;;;;;;;;6206153;28;19925;-79
2022/08/08 14:04:23;;;;;;;2.22;0.80;;;;;;;;;;6206222;28;20057;-79
2022/08/08 14:07:28;;;;;;;0.70;0.70;;;;;;;;;;6207025;28;20057;-80
2022/08/08 14:10:32;;;;;;;0.68;0.60;;;;;;;;;;6221522;28;20123;-80
2022/08/08 14:13:40;;;;;;;0.70;0.70;;;;;;;;;;6221166;28;20046;-79
2022/08/08 14:17:03;;;;;;;0.80;0.60;;;;;;;;;;6222397;28;20050;-79
2022/08/08 14:20:07;;;;;;;0.93;0.57;;;;;;;;;;6227956;28;20050;-79
2022/08/08 14:23:40;;;;;;;1.23;0.73;;;;;;;;;;6212666;28;20068;-79
2022/08/08 14:27:01;;;;;;;1.67;0.80;;;;;;;;;;6227520;28;20504;-80
2022/08/08 14:30:08;;;;;;;0.70;0.70;;;;;;;;;;6218956;28;20277;-79
2022/08/08 14:33:27;;;;;;;0.80;0.80;;;;;;;;;;6217966;28;20038;-79
2022/08/08 14:36:39;;;;;;;1.05;0.50;;;;;;;;;;6218779;28;20054;-78
2022/08/08 14:39:55;;;;;;;3.40;1.00;;;;;;;;;;6228335;28;20439;-79
2022/08/08 14:43:07;;;;;;;0.65;0.60;;;;;;;;;;6215632;28;20045;-79
2022/08/08 14:46:30;;;;;;;1.80;0.70;;;;;;;;;;6217067;28;20405;-79
2022/08/08 14:49:34;;;;;;;0.60;0.60;;;;;;;;;;6213540;28;20049;-79
2022/08/08 14:53:02;;;;;;;0.70;0.70;;;;;;;;;;6215270;28;20128;-79
2022/08/08 14:56:05;;;;;;;0.70;0.55;;;;;;;;;;6213591;28;20046;-78
2022/08/08 14:59:13;;;;;;;0.88;0.73;;;;;;;;;;6220193;28;20050;-78
2022/08/08 15:02:34;;;;;;;2.72;0.82;;;;;;;;;;6216498;28;20081;-79
2022/08/08 15:05:56;;;;;;;1.73;0.75;;;;;;;;;;6226373;28;20050;-78
2022/08/08 15:08:59;;;;;;;3.53;0.85;;;;;;;;;;6216035;28;20046;-79
2022/08/08 15:12:01;;;;;;;1.58;1.00;;;;;;;;;;6214082;28;20489;-78
2022/08/08 15:15:04;;;;;;;2.78;0.70;;;;;;;;;;6216230;28;20144;-79
2022/08/08 15:18:09;;;;;;;2.50;0.70;;;;;;;;;;6217636;28;20050;-79
2022/08/08 15:21:11;;;;;;;;;;;;;;;;;;6218192;28;20049;-79
2022/08/08 15:24:13;;;;;;;1.15;0.65;;;;;;;;;;6217412;28;19983;-78
2022/08/08 15:27:17;;;;;;;1.70;0.80;;;;;;;;;;6216955;28;20045;-79
2022/08/08 15:30:39;;;;;;;0.98;0.88;;;;;;;;;;6217350;28;20401;-79
2022/08/08 15:33:43;;;;;;;0.68;0.65;;;;;;;;;;6232285;28;20092;-79
2022/08/08 15:37:02;;;;;;;0.70;0.70;;;;;;;;;;6217018;28;20133;-79
2022/08/08 15:40:07;;;;;;;1.63;1.00;;;;;;;;;;6217361;28;20459;-79
2022/08/08 15:43:16;;;;;;;1.67;0.70;;;;;;;;;;6221890;28;20057;-80
2022/08/08 15:46:36;;;;;;;2.53;0.82;;;;;;;;;;6216168;28;21608;-79
2022/08/08 15:49:42;;;;;;;1.52;0.80;;;;;;;;;;6230244;28;20180;-79
2022/08/08 15:52:44;;;;;;;1.25;0.90;;;;;;;;;;6229212;28;20100;-78
2022/08/08 15:55:46;;;;;;;1.10;0.80;;;;;;;;;;6217624;28;20156;-79
2022/08/08 15:58:50;;;;;;;0.90;0.90;;;;;;;;;;6216540;28;20046;-78
2022/08/08 16:01:52;;;;;;;0.80;0.70;;;;;;;;;;6232955;28;20647;-78
2022/08/08 16:05:01;;;;;;;0.77;0.70;;;;;;;;;;6218325;28;20049;-81
2022/08/08 16:08:04;;;;;;;1.20;0.80;;;;;;;;;;6227216;28;20566;-77
2022/08/08 16:11:13;;;;;;;2.75;0.95;;;;;;;;;;6223294;28;20049;-78
2022/08/08 16:14:35;;;;;;;2.50;0.88;;;;;;;;;;6221940;28;20068;-80
2022/08/08 16:17:37;;;;;;;0.70;0.70;;;;;;;;;;6231670;28;20081;-76
2022/08/08 16:20:58;;;;;;;0.60;0.60;;;;;;;;;;6211474;28;21116;-78
2022/08/08 16:24:04;;;;;;;0.80;0.80;;;;;;;;;;6213771;28;20073;-76
2022/08/08 16:27:06;;;;;;;0.90;0.80;;;;;;;;;;6228590;28;20201;-76
2022/08/08 16:30:18;;;;;;;0.90;0.90;;;;;;;;;;6216269;28;20128;-77
2022/08/08 16:33:37;;;;;;;1.00;1.00;;;;;;;;;;6216190;28;20041;-78
2022/08/08 16:36:41;;;;;;;2.50;0.80;;;;;;;;;;6215066;28;20046;-77
2022/08/08 16:39:43;;;;;;;0.70;0.70;;;;;;;;;;6217822;28;20038;-78
2022/08/08 16:43:04;;;;;;;1.00;0.80;;;;;;;;;;6217012;28;20407;-79
2022/08/08 16:46:05;;;;;;;1.90;0.88;;;;;;;;;;6214116;28;20140;-79
2022/08/08 16:49:27;;;;;;;1.97;1.10;;;;;;;;;;6212747;28;20044;-78
2022/08/08 16:52:39;;;;;;;0.90;0.83;;;;;;;;;;6210372;28;20551;-78
2022/08/08 16:56:01;;;;;;;1.60;1.02;;;;;;;;;;6207764;28;20708;-78
2022/08/08 16:59:04;;;;;;;1.98;1.00;;;;;;;;;;6216564;28;20135;-79
2022/08/08 17:02:17;;;;;;;1.30;0.90;;;;;;;;;;6216618;28;20049;-78
2022/08/08 17:05:38;;;;;;;1.02;0.93;;;;;;;;;;6207718;28;20399;-77
2022/08/08 17:08:45;;;;;;;0.98;0.88;;;;;;;;;;6205286;28;20034;-77
2022/08/08 17:11:49;;;;;;;1.00;0.88;;;;;;;;;;6208281;28;20085;-77
2022/08/08 17:14:56;;;;;;;1.48;1.00;;;;;;;;;;6222033;28;20077;-77
2022/08/08 17:17:57;;;;;;;1.35;1.00;;;;;;;;;;6208355;28;20038;-76
2022/08/08 17:21:08;;;;;;;1.17;1.08;;;;;;;;;;6220678;28;20102;-76
2022/08/08 17:24:10;;;;;;;1.83;0.90;;;;;;;;;;6206593;28;20117;-77
2022/08/08 17:27:30;;;;;;;1.73;1.00;;;;;;;;;;6207509;28;20092;-76
2022/08/08 17:30:48;;;;;;;2.20;1.02;;;;;;;;;;6214626;28;20041;-77
2022/08/08 17:33:51;;;;;;;1.35;1.25;;;;;;;;;;6207791;28;20121;-78
2022/08/08 17:37:13;;;;;;;0.98;0.98;;;;;;;;;;6200313;28;20042;-77
2022/08/08 17:40:15;;;;;;;2.00;1.10;;;;;;;;;;6221881;28;20515;-77
2022/08/08 17:43:16;;;;;;;1.40;1.30;;;;;;;;;;6217195;28;20042;-77
2022/08/08 17:46:33;;;;;;;1.33;1.00;;;;;;;;;;6204675;28;20053;-77
2022/08/08 17:49:36;;;;;;;1.83;1.17;;;;;;;;;;6219850;28;20068;-79
2022/08/08 17:52:43;;;;;;;1.23;1.10;;;;;;;;;;6221470;28;20124;-79
2022/08/08 17:55:48;;;;;;;1.40;1.08;;;;;;;;;;6206958;28;20530;-79
2022/08/08 17:59:08;;;;;;;1.70;1.17;;;;;;;;;;6205651;28;20053;-78
2022/08/08 18:02:10;;;;;;;1.25;1.15;;;;;;;;;;6206234;28;20136;-77
2022/08/08 18:05:21;;;;;;;1.00;1.00;;;;;;;;;;6205518;28;20065;-76
2022/08/08 18:08:25;;;;;;;2.67;1.10;;;;;;;;;;6217288;28;20048;-76
2022/08/08 18:11:42;;;;;;;1.38;1.13;;;;;;;;;;6210173;28;20132;-77
2022/08/08 18:14:50;;;;;;;1.02;1.02;;;;;;;;;;6215603;28;20058;-78
2022/08/08 18:17:52;;;;;;;2.67;1.00;;;;;;;;;;6205960;28;20092;-77
2022/08/08 18:21:14;;;;;;;1.00;1.00;;;;;;;;;;6209393;28;20049;-79
2022/08/08 18:24:35;;;;;;;3.25;1.10;;;;;;;;;;6209340;28;20574;-79
2022/08/08 18:27:38;;;;;;;2.08;1.30;;;;;;;;;;6209057;28;20042;-80
2022/08/08 18:30:45;;;;;;;1.10;0.90;;;;;;;;;;6207882;28;20081;-79
2022/08/08 18:33:49;;;;;;;1.23;1.13;;;;;;;;;;6225805;28;20160;-80
2022/08/08 18:37:10;;;;;;;2.08;1.00;;;;;;;;;;6219972;28;20196;-79
2022/08/08 18:40:32;;;;;;;1.83;1.10;;;;;;;;;;6212827;28;20046;-77
2022/08/08 18:43:36;;;;;;;1.00;1.00;;;;;;;;;;6210123;28;20397;-81
2022/08/08 18:46:43;;;;;;;3.35;1.30;;;;;;;;;;6210533;28;20099;-80
2022/08/08 18:49:57;;;;;;;2.00;1.13;;;;;;;;;;6227395;28;20050;-79
2022/08/08 18:53:01;;;;;;;1.50;1.10;;;;;;;;;;6213225;28;20045;-78
2022/08/08 18:56:04;;;;;;;1.90;1.40;;;;;;;;;;6212269;28;20122;-79
2022/08/08 18:59:05;;;;;;;;;;;;;;;;;;6213417;28;20082;-80
2022/08/08 19:02:08;;;;;;;1.50;1.40;;;;;;;;;;6228799;28;19976;-80
2022/08/08 19:05:40;;;;;;;2.38;1.50;;;;;;;;;;6216013;28;20045;-79
2022/08/08 19:08:47;;;;;;;3.42;1.30;;;;;;;;;;6215401;28;20171;-80
2022/08/08 19:11:49;;;;;;;1.70;1.45;;;;;;;;;;6217297;28;20835;-79
2022/08/08 19:14:51;;;;;;;3.25;1.48;;;;;;;;;;6216079;28;20075;-79
2022/08/08 19:17:52;;;;;;;3.45;1.80;;;;;;;;;;6205576;28;20042;-79
2022/08/08 19:21:14;;;;;;;1.70;1.60;;;;;;;;;;6215900;28;21391;-78
2022/08/08 19:24:31;;;;;;;1.90;1.80;;;;;;;;;;6213167;28;20580;-79
2022/08/08 19:27:53;;;;;;;2.30;1.63;;;;;;;;;;6214549;28;20131;-80
2022/08/08 19:30:58;;;;;;;2.45;1.88;;;;;;;;;;6214001;28;20103;-78
2022/08/08 19:34:07;;;;;;;2.40;1.80;;;;;;;;;;6229422;28;20523;-79
2022/08/08 19:37:29;;;;;;;2.00;1.80;;;;;;;;;;6229929;28;20072;-79